sensor_id;sensor_type;location;lat;lon;timestamp;P1;durP1;ratioP1;P2;durP2;ratioP2
37527;SDS011;23372;52.050;4.810;2023-04-25T00:00:28;14.87;;;4.20;;
37527;SDS011;23372;52.050;4.810;2023-04-25T00:02:54;20.20;;;4.03;;
37527;SDS011;23372;52.050;4.810;2023-04-25T00:05:21;17.13;;;4.00;;
37527;SDS011;23372;52.050;4.810;2023-04-25T00:07:51;18.20;;;4.03;;
37527;SDS011;23372;52.050;4.810;2023-04-25T00:10:16;11.87;;;4.00;;
37527;SDS011;23372;52.050;4.810;2023-04-25T00:12:44;18.50;;;5.07;;
37527;SDS011;23372;52.050;4.810;2023-04-25T00:15:11;9.77;;;3.40;;
37527;SDS011;23372;52.050;4.810;2023-04-25T00:17:36;13.23;;;3.10;;
37527;SDS011;23372;52.050;4.810;2023-04-25T00:20:03;12.00;;;3.40;;
37527;SDS011;23372;52.050;4.810;2023-04-25T00:22:30;12.73;;;4.60;;
37527;SDS011;23372;52.050;4.810;2023-04-25T00:24:56;16.60;;;4.17;;
37527;SDS011;23372;52.050;4.810;2023-04-25T00:27:26;14.50;;;3.57;;
37527;SDS011;23372;52.050;4.810;2023-04-25T00:29:52;14.27;;;3.73;;
37527;SDS011;23372;52.050;4.810;2023-04-25T00:32:17;10.00;;;3.60;;
37527;SDS011;23372;52.050;4.810;2023-04-25T00:34:44;12.50;;;3.43;;
37527;SDS011;23372;52.050;4.810;2023-04-25T00:37:10;13.37;;;4.00;;
37527;SDS011;23372;52.050;4.810;2023-04-25T00:39:36;13.13;;;3.60;;
37527;SDS011;23372;52.050;4.810;2023-04-25T00:42:02;15.77;;;3.73;;
37527;SDS011;23372;52.050;4.810;2023-04-25T00:44:29;15.50;;;4.27;;
37527;SDS011;23372;52.050;4.810;2023-04-25T00:46:57;13.03;;;3.73;;
37527;SDS011;23372;52.050;4.810;2023-04-25T00:49:23;14.00;;;3.47;;
37527;SDS011;23372;52.050;4.810;2023-04-25T00:51:48;15.63;;;3.83;;
37527;SDS011;23372;52.050;4.810;2023-04-25T00:54:14;10.30;;;3.30;;
37527;SDS011;23372;52.050;4.810;2023-04-25T00:56:41;11.47;;;3.43;;
37527;SDS011;23372;52.050;4.810;2023-04-25T00:59:07;8.53;;;4.40;;
37527;SDS011;23372;52.050;4.810;2023-04-25T01:01:35;17.37;;;5.17;;
37527;SDS011;23372;52.050;4.810;2023-04-25T01:04:01;18.67;;;4.03;;
37527;SDS011;23372;52.050;4.810;2023-04-25T01:06:26;9.13;;;3.20;;
37527;SDS011;23372;52.050;4.810;2023-04-25T01:08:53;12.60;;;3.23;;
37527;SDS011;23372;52.050;4.810;2023-04-25T01:11:19;14.47;;;3.53;;
37527;SDS011;23372;52.050;4.810;2023-04-25T01:13:45;13.20;;;3.50;;
37527;SDS011;23372;52.050;4.810;2023-04-25T01:16:10;17.80;;;3.40;;
37527;SDS011;23372;52.050;4.810;2023-04-25T01:18:38;18.37;;;3.90;;
37527;SDS011;23372;52.050;4.810;2023-04-25T01:21:08;15.23;;;3.03;;
37527;SDS011;23372;52.050;4.810;2023-04-25T01:23:36;11.93;;;3.57;;
37527;SDS011;23372;52.050;4.810;2023-04-25T01:26:03;15.93;;;3.60;;
37527;SDS011;23372;52.050;4.810;2023-04-25T01:28:29;14.73;;;4.20;;
37527;SDS011;23372;52.050;4.810;2023-04-25T01:30:56;16.93;;;3.47;;
37527;SDS011;23372;52.050;4.810;2023-04-25T01:33:22;10.07;;;3.10;;
37527;SDS011;23372;52.050;4.810;2023-04-25T01:35:48;12.53;;;2.77;;
37527;SDS011;23372;52.050;4.810;2023-04-25T01:38:13;12.63;;;3.17;;
37527;SDS011;23372;52.050;4.810;2023-04-25T01:40:40;12.67;;;3.30;;
37527;SDS011;23372;52.050;4.810;2023-04-25T01:43:06;14.53;;;3.43;;
37527;SDS011;23372;52.050;4.810;2023-04-25T01:45:40;11.07;;;3.07;;
37527;SDS011;23372;52.050;4.810;2023-04-25T01:48:07;16.17;;;3.60;;
37527;SDS011;23372;52.050;4.810;2023-04-25T01:50:33;13.57;;;3.30;;
37527;SDS011;23372;52.050;4.810;2023-04-25T01:52:59;9.70;;;2.70;;
37527;SDS011;23372;52.050;4.810;2023-04-25T01:55:26;12.17;;;3.47;;
37527;SDS011;23372;52.050;4.810;2023-04-25T01:57:52;12.73;;;3.50;;
37527;SDS011;23372;52.050;4.810;2023-04-25T02:00:18;12.77;;;3.50;;
37527;SDS011;23372;52.050;4.810;2023-04-25T02:02:44;11.60;;;3.17;;
37527;SDS011;23372;52.050;4.810;2023-04-25T02:05:09;6.77;;;2.70;;
37527;SDS011;23372;52.050;4.810;2023-04-25T02:07:35;9.60;;;3.00;;
37527;SDS011;23372;52.050;4.810;2023-04-25T02:10:01;13.93;;;3.60;;
37527;SDS011;23372;52.050;4.810;2023-04-25T02:12:27;10.07;;;3.20;;
37527;SDS011;23372;52.050;4.810;2023-04-25T02:14:53;8.13;;;3.20;;
37527;SDS011;23372;52.050;4.810;2023-04-25T02:17:18;7.63;;;2.60;;
37527;SDS011;23372;52.050;4.810;2023-04-25T02:19:44;15.70;;;3.53;;
37527;SDS011;23372;52.050;4.810;2023-04-25T02:22:10;11.43;;;3.40;;
37527;SDS011;23372;52.050;4.810;2023-04-25T02:24:36;12.33;;;2.77;;
37527;SDS011;23372;52.050;4.810;2023-04-25T02:27:01;13.30;;;3.50;;
37527;SDS011;23372;52.050;4.810;2023-04-25T02:29:29;10.67;;;3.33;;
37527;SDS011;23372;52.050;4.810;2023-04-25T02:31:54;11.60;;;3.00;;
37527;SDS011;23372;52.050;4.810;2023-04-25T02:34:20;13.80;;;3.23;;
37527;SDS011;23372;52.050;4.810;2023-04-25T02:36:47;14.27;;;3.60;;
37527;SDS011;23372;52.050;4.810;2023-04-25T02:39:13;8.83;;;2.67;;
37527;SDS011;23372;52.050;4.810;2023-04-25T02:41:39;11.30;;;3.00;;
37527;SDS011;23372;52.050;4.810;2023-04-25T02:44:05;11.63;;;3.40;;
37527;SDS011;23372;52.050;4.810;2023-04-25T02:46:30;17.30;;;4.50;;
37527;SDS011;23372;52.050;4.810;2023-04-25T02:48:56;13.33;;;3.23;;
37527;SDS011;23372;52.050;4.810;2023-04-25T02:51:21;12.13;;;3.03;;
37527;SDS011;23372;52.050;4.810;2023-04-25T02:53:47;9.57;;;3.00;;
37527;SDS011;23372;52.050;4.810;2023-04-25T02:56:13;11.40;;;2.53;;
37527;SDS011;23372;52.050;4.810;2023-04-25T02:58:38;12.17;;;2.90;;
37527;SDS011;23372;52.050;4.810;2023-04-25T03:01:04;5.73;;;3.03;;
37527;SDS011;23372;52.050;4.810;2023-04-25T03:03:30;18.27;;;2.87;;
37527;SDS011;23372;52.050;4.810;2023-04-25T03:05:56;9.70;;;2.80;;
37527;SDS011;23372;52.050;4.810;2023-04-25T03:08:21;11.37;;;2.80;;
37527;SDS011;23372;52.050;4.810;2023-04-25T03:10:47;10.40;;;2.70;;
37527;SDS011;23372;52.050;4.810;2023-04-25T03:13:15;13.07;;;3.03;;
37527;SDS011;23372;52.050;4.810;2023-04-25T03:15:40;13.00;;;3.43;;
37527;SDS011;23372;52.050;4.810;2023-04-25T03:18:06;14.63;;;3.40;;
37527;SDS011;23372;52.050;4.810;2023-04-25T03:20:31;13.07;;;3.10;;
37527;SDS011;23372;52.050;4.810;2023-04-25T03:22:57;14.10;;;2.77;;
37527;SDS011;23372;52.050;4.810;2023-04-25T03:25:23;17.27;;;3.10;;
37527;SDS011;23372;52.050;4.810;2023-04-25T03:27:48;9.23;;;2.40;;
37527;SDS011;23372;52.050;4.810;2023-04-25T03:30:14;12.53;;;3.63;;
37527;SDS011;23372;52.050;4.810;2023-04-25T03:32:40;12.43;;;2.37;;
37527;SDS011;23372;52.050;4.810;2023-04-25T03:35:05;11.20;;;2.23;;
37527;SDS011;23372;52.050;4.810;2023-04-25T03:37:32;17.23;;;2.60;;
37527;SDS011;23372;52.050;4.810;2023-04-25T03:39:57;12.33;;;2.23;;
37527;SDS011;23372;52.050;4.810;2023-04-25T03:42:23;13.00;;;2.53;;
37527;SDS011;23372;52.050;4.810;2023-04-25T03:44:49;7.87;;;2.23;;
37527;SDS011;23372;52.050;4.810;2023-04-25T03:47:16;15.17;;;3.00;;
37527;SDS011;23372;52.050;4.810;2023-04-25T03:49:42;14.07;;;2.47;;
37527;SDS011;23372;52.050;4.810;2023-04-25T03:52:08;12.37;;;2.27;;
37527;SDS011;23372;52.050;4.810;2023-04-25T03:54:34;13.30;;;2.53;;
37527;SDS011;23372;52.050;4.810;2023-04-25T03:56:59;8.53;;;2.37;;
37527;SDS011;23372;52.050;4.810;2023-04-25T03:59:25;7.37;;;2.43;;
37527;SDS011;23372;52.050;4.810;2023-04-25T04:01:51;12.37;;;2.23;;
37527;SDS011;23372;52.050;4.810;2023-04-25T04:04:17;10.70;;;2.53;;
37527;SDS011;23372;52.050;4.810;2023-04-25T04:06:43;11.93;;;3.27;;
37527;SDS011;23372;52.050;4.810;2023-04-25T04:09:09;11.67;;;4.33;;
37527;SDS011;23372;52.050;4.810;2023-04-25T04:11:36;8.70;;;2.87;;
37527;SDS011;23372;52.050;4.810;2023-04-25T04:14:03;12.77;;;2.40;;
37527;SDS011;23372;52.050;4.810;2023-04-25T04:16:30;12.93;;;3.60;;
37527;SDS011;23372;52.050;4.810;2023-04-25T04:18:56;15.63;;;2.80;;
37527;SDS011;23372;52.050;4.810;2023-04-25T04:21:22;14.43;;;2.33;;
37527;SDS011;23372;52.050;4.810;2023-04-25T04:23:47;19.87;;;3.03;;
37527;SDS011;23372;52.050;4.810;2023-04-25T04:26:13;14.80;;;2.87;;
37527;SDS011;23372;52.050;4.810;2023-04-25T04:28:41;11.37;;;2.33;;
37527;SDS011;23372;52.050;4.810;2023-04-25T04:31:09;8.27;;;2.27;;
37527;SDS011;23372;52.050;4.810;2023-04-25T04:33:35;8.83;;;2.50;;
37527;SDS011;23372;52.050;4.810;2023-04-25T04:36:01;8.40;;;2.10;;
37527;SDS011;23372;52.050;4.810;2023-04-25T04:38:28;13.13;;;3.03;;
37527;SDS011;23372;52.050;4.810;2023-04-25T04:40:54;13.80;;;2.50;;
37527;SDS011;23372;52.050;4.810;2023-04-25T04:43:20;13.13;;;2.60;;
37527;SDS011;23372;52.050;4.810;2023-04-25T04:45:47;10.47;;;2.10;;
37527;SDS011;23372;52.050;4.810;2023-04-25T04:48:15;8.60;;;1.87;;
37527;SDS011;23372;52.050;4.810;2023-04-25T04:50:42;10.80;;;3.00;;
37527;SDS011;23372;52.050;4.810;2023-04-25T04:53:10;7.77;;;2.10;;
37527;SDS011;23372;52.050;4.810;2023-04-25T04:55:36;11.47;;;2.33;;
37527;SDS011;23372;52.050;4.810;2023-04-25T04:58:02;8.87;;;2.37;;
37527;SDS011;23372;52.050;4.810;2023-04-25T05:00:28;7.50;;;2.20;;
37527;SDS011;23372;52.050;4.810;2023-04-25T05:02:54;10.93;;;2.40;;
37527;SDS011;23372;52.050;4.810;2023-04-25T05:05:20;8.63;;;2.17;;
37527;SDS011;23372;52.050;4.810;2023-04-25T05:07:46;7.63;;;2.23;;
37527;SDS011;23372;52.050;4.810;2023-04-25T05:10:11;8.20;;;1.60;;
37527;SDS011;23372;52.050;4.810;2023-04-25T05:12:37;12.90;;;3.47;;
37527;SDS011;23372;52.050;4.810;2023-04-25T05:15:03;11.07;;;2.03;;
37527;SDS011;23372;52.050;4.810;2023-04-25T05:17:29;11.03;;;2.30;;
37527;SDS011;23372;52.050;4.810;2023-04-25T05:19:54;6.70;;;2.03;;
37527;SDS011;23372;52.050;4.810;2023-04-25T05:22:20;9.40;;;2.03;;
37527;SDS011;23372;52.050;4.810;2023-04-25T05:24:46;5.97;;;2.00;;
37527;SDS011;23372;52.050;4.810;2023-04-25T05:27:13;12.93;;;2.43;;
37527;SDS011;23372;52.050;4.810;2023-04-25T05:29:41;10.20;;;2.27;;
37527;SDS011;23372;52.050;4.810;2023-04-25T05:32:07;11.10;;;3.53;;
37527;SDS011;23372;52.050;4.810;2023-04-25T05:34:34;7.67;;;3.03;;
37527;SDS011;23372;52.050;4.810;2023-04-25T05:37:00;13.73;;;2.63;;
37527;SDS011;23372;52.050;4.810;2023-04-25T05:39:25;8.33;;;2.73;;
37527;SDS011;23372;52.050;4.810;2023-04-25T05:41:51;10.43;;;3.20;;
37527;SDS011;23372;52.050;4.810;2023-04-25T05:44:17;6.40;;;2.63;;
37527;SDS011;23372;52.050;4.810;2023-04-25T05:46:43;8.77;;;2.53;;
37527;SDS011;23372;52.050;4.810;2023-04-25T05:49:08;6.50;;;2.17;;
37527;SDS011;23372;52.050;4.810;2023-04-25T05:51:34;10.00;;;2.10;;
37527;SDS011;23372;52.050;4.810;2023-04-25T05:54:00;5.60;;;2.40;;
37527;SDS011;23372;52.050;4.810;2023-04-25T05:56:25;10.17;;;2.90;;
37527;SDS011;23372;52.050;4.810;2023-04-25T05:58:51;10.03;;;2.20;;
37527;SDS011;23372;52.050;4.810;2023-04-25T06:01:17;8.47;;;2.30;;
37527;SDS011;23372;52.050;4.810;2023-04-25T06:03:42;9.53;;;1.67;;
37527;SDS011;23372;52.050;4.810;2023-04-25T06:06:08;7.60;;;2.70;;
37527;SDS011;23372;52.050;4.810;2023-04-25T06:08:34;10.00;;;1.87;;
37527;SDS011;23372;52.050;4.810;2023-04-25T06:11:00;10.93;;;1.67;;
37527;SDS011;23372;52.050;4.810;2023-04-25T06:13:26;9.63;;;1.90;;
37527;SDS011;23372;52.050;4.810;2023-04-25T06:15:51;5.07;;;1.33;;
37527;SDS011;23372;52.050;4.810;2023-04-25T06:18:17;14.83;;;2.07;;
37527;SDS011;23372;52.050;4.810;2023-04-25T06:20:43;11.27;;;1.53;;
37527;SDS011;23372;52.050;4.810;2023-04-25T06:23:08;13.13;;;1.70;;
37527;SDS011;23372;52.050;4.810;2023-04-25T06:25:34;9.10;;;1.70;;
37527;SDS011;23372;52.050;4.810;2023-04-25T06:27:59;7.20;;;1.77;;
37527;SDS011;23372;52.050;4.810;2023-04-25T06:30:25;4.30;;;1.60;;
37527;SDS011;23372;52.050;4.810;2023-04-25T06:32:51;6.60;;;1.80;;
37527;SDS011;23372;52.050;4.810;2023-04-25T06:35:18;7.13;;;1.77;;
37527;SDS011;23372;52.050;4.810;2023-04-25T06:37:43;5.90;;;1.63;;
37527;SDS011;23372;52.050;4.810;2023-04-25T06:40:09;3.57;;;1.50;;
37527;SDS011;23372;52.050;4.810;2023-04-25T06:42:35;5.37;;;1.70;;
37527;SDS011;23372;52.050;4.810;2023-04-25T06:45:02;8.40;;;1.77;;
37527;SDS011;23372;52.050;4.810;2023-04-25T06:47:28;14.70;;;1.67;;
37527;SDS011;23372;52.050;4.810;2023-04-25T06:49:54;8.27;;;1.63;;
37527;SDS011;23372;52.050;4.810;2023-04-25T06:52:20;9.00;;;1.57;;
37527;SDS011;23372;52.050;4.810;2023-04-25T06:54:46;8.57;;;1.50;;
37527;SDS011;23372;52.050;4.810;2023-04-25T06:57:12;7.43;;;1.77;;
37527;SDS011;23372;52.050;4.810;2023-04-25T06:59:38;7.53;;;1.87;;
37527;SDS011;23372;52.050;4.810;2023-04-25T07:02:03;6.17;;;1.40;;
37527;SDS011;23372;52.050;4.810;2023-04-25T07:04:29;11.93;;;2.03;;
37527;SDS011;23372;52.050;4.810;2023-04-25T07:06:55;9.50;;;1.70;;
37527;SDS011;23372;52.050;4.810;2023-04-25T07:09:21;6.93;;;1.30;;
37527;SDS011;23372;52.050;4.810;2023-04-25T07:11:47;9.03;;;1.63;;
37527;SDS011;23372;52.050;4.810;2023-04-25T07:14:13;8.13;;;1.83;;
37527;SDS011;23372;52.050;4.810;2023-04-25T07:16:38;8.47;;;2.37;;
37527;SDS011;23372;52.050;4.810;2023-04-25T07:19:04;9.60;;;1.30;;
37527;SDS011;23372;52.050;4.810;2023-04-25T07:21:30;9.30;;;1.63;;
37527;SDS011;23372;52.050;4.810;2023-04-25T07:23:56;7.53;;;1.23;;
37527;SDS011;23372;52.050;4.810;2023-04-25T07:26:22;7.40;;;1.60;;
37527;SDS011;23372;52.050;4.810;2023-04-25T07:28:47;6.60;;;1.40;;
37527;SDS011;23372;52.050;4.810;2023-04-25T07:31:15;4.90;;;1.25;;
37527;SDS011;23372;52.050;4.810;2023-04-25T07:33:43;8.32;;;1.48;;
37527;SDS011;23372;52.050;4.810;2023-04-25T07:36:10;7.50;;;1.80;;
37527;SDS011;23372;52.050;4.810;2023-04-25T07:38:35;6.68;;;1.33;;
37527;SDS011;23372;52.050;4.810;2023-04-25T07:41:01;6.82;;;1.48;;
37527;SDS011;23372;52.050;4.810;2023-04-25T07:43:27;8.80;;;1.35;;
37527;SDS011;23372;52.050;4.810;2023-04-25T07:45:53;7.25;;;1.58;;
37527;SDS011;23372;52.050;4.810;2023-04-25T07:48:18;5.05;;;1.20;;
37527;SDS011;23372;52.050;4.810;2023-04-25T07:50:44;5.85;;;1.00;;
37527;SDS011;23372;52.050;4.810;2023-04-25T07:53:10;3.95;;;1.17;;
37527;SDS011;23372;52.050;4.810;2023-04-25T07:55:36;6.45;;;1.27;;
37527;SDS011;23372;52.050;4.810;2023-04-25T07:58:08;7.47;;;1.60;;
37527;SDS011;23372;52.050;4.810;2023-04-25T08:00:35;5.18;;;1.00;;
37527;SDS011;23372;52.050;4.810;2023-04-25T08:03:01;4.80;;;1.30;;
37527;SDS011;23372;52.050;4.810;2023-04-25T08:05:28;6.32;;;1.80;;
37527;SDS011;23372;52.050;4.810;2023-04-25T08:07:54;5.05;;;0.90;;
37527;SDS011;23372;52.050;4.810;2023-04-25T08:10:20;5.22;;;1.00;;
37527;SDS011;23372;52.050;4.810;2023-04-25T08:12:47;6.95;;;1.10;;
37527;SDS011;23372;52.050;4.810;2023-04-25T08:15:14;5.55;;;1.52;;
37527;SDS011;23372;52.050;4.810;2023-04-25T08:17:40;7.93;;;1.10;;
37527;SDS011;23372;52.050;4.810;2023-04-25T08:20:06;7.72;;;1.63;;
37527;SDS011;23372;52.050;4.810;2023-04-25T08:22:32;7.38;;;1.30;;
37527;SDS011;23372;52.050;4.810;2023-04-25T08:24:58;4.32;;;0.98;;
37527;SDS011;23372;52.050;4.810;2023-04-25T08:27:24;7.82;;;1.00;;
37527;SDS011;23372;52.050;4.810;2023-04-25T08:29:50;8.52;;;1.55;;
37527;SDS011;23372;52.050;4.810;2023-04-25T08:32:16;7.70;;;1.63;;
37527;SDS011;23372;52.050;4.810;2023-04-25T08:34:41;5.70;;;0.90;;
37527;SDS011;23372;52.050;4.810;2023-04-25T08:37:09;5.28;;;1.10;;
37527;SDS011;23372;52.050;4.810;2023-04-25T08:39:35;5.90;;;2.10;;
37527;SDS011;23372;52.050;4.810;2023-04-25T08:42:06;8.88;;;0.88;;
37527;SDS011;23372;52.050;4.810;2023-04-25T08:44:35;6.03;;;1.13;;
37527;SDS011;23372;52.050;4.810;2023-04-25T08:47:04;8.98;;;1.10;;
37527;SDS011;23372;52.050;4.810;2023-04-25T08:49:34;6.97;;;1.20;;
37527;SDS011;23372;52.050;4.810;2023-04-25T08:52:00;7.15;;;1.10;;
37527;SDS011;23372;52.050;4.810;2023-04-25T08:54:28;7.40;;;1.30;;
37527;SDS011;23372;52.050;4.810;2023-04-25T08:56:56;8.13;;;1.80;;
37527;SDS011;23372;52.050;4.810;2023-04-25T08:59:23;4.90;;;0.97;;
37527;SDS011;23372;52.050;4.810;2023-04-25T09:01:52;4.10;;;1.20;;
37527;SDS011;23372;52.050;4.810;2023-04-25T09:04:18;4.90;;;0.77;;
37527;SDS011;23372;52.050;4.810;2023-04-25T09:06:45;5.83;;;0.60;;
37527;SDS011;23372;52.050;4.810;2023-04-25T09:09:11;5.67;;;1.20;;
37527;SDS011;23372;52.050;4.810;2023-04-25T09:11:37;4.23;;;0.80;;
37527;SDS011;23372;52.050;4.810;2023-04-25T09:14:13;9.17;;;1.67;;
37527;SDS011;23372;52.050;4.810;2023-04-25T09:19:21;9.77;;;1.30;;
37527;SDS011;23372;52.050;4.810;2023-04-25T09:21:51;5.13;;;0.90;;
37527;SDS011;23372;52.050;4.810;2023-04-25T09:27:19;4.50;;;0.90;;
37527;SDS011;23372;52.050;4.810;2023-04-25T09:29:56;3.27;;;0.97;;
37527;SDS011;23372;52.050;4.810;2023-04-25T09:32:25;6.93;;;1.20;;
37527;SDS011;23372;52.050;4.810;2023-04-25T09:34:51;3.23;;;1.27;;
37527;SDS011;23372;52.050;4.810;2023-04-25T09:37:18;2.87;;;0.90;;
37527;SDS011;23372;52.050;4.810;2023-04-25T09:39:46;9.60;;;0.97;;
37527;SDS011;23372;52.050;4.810;2023-04-25T09:42:16;3.73;;;0.90;;
37527;SDS011;23372;52.050;4.810;2023-04-25T09:44:43;4.60;;;0.90;;
37527;SDS011;23372;52.050;4.810;2023-04-25T09:47:10;3.77;;;0.93;;
37527;SDS011;23372;52.050;4.810;2023-04-25T09:49:41;2.83;;;0.63;;
37527;SDS011;23372;52.050;4.810;2023-04-25T09:52:08;4.00;;;1.07;;
37527;SDS011;23372;52.050;4.810;2023-04-25T09:54:38;6.80;;;0.83;;
37527;SDS011;23372;52.050;4.810;2023-04-25T09:57:13;7.10;;;0.80;;
37527;SDS011;23372;52.050;4.810;2023-04-25T09:59:43;5.50;;;1.03;;
37527;SDS011;23372;52.050;4.810;2023-04-25T10:02:10;5.93;;;0.90;;
37527;SDS011;23372;52.050;4.810;2023-04-25T10:04:37;7.53;;;1.40;;
37527;SDS011;23372;52.050;4.810;2023-04-25T10:07:07;5.47;;;1.57;;
37527;SDS011;23372;52.050;4.810;2023-04-25T10:09:33;4.73;;;0.83;;
37527;SDS011;23372;52.050;4.810;2023-04-25T10:12:02;4.73;;;0.80;;
37527;SDS011;23372;52.050;4.810;2023-04-25T10:14:31;8.63;;;1.20;;
37527;SDS011;23372;52.050;4.810;2023-04-25T10:17:05;10.23;;;1.50;;
37527;SDS011;23372;52.050;4.810;2023-04-25T10:19:35;7.53;;;1.10;;
37527;SDS011;23372;52.050;4.810;2023-04-25T10:22:03;7.27;;;1.33;;
37527;SDS011;23372;52.050;4.810;2023-04-25T10:24:29;6.60;;;1.10;;
37527;SDS011;23372;52.050;4.810;2023-04-25T10:26:55;10.60;;;1.03;;
37527;SDS011;23372;52.050;4.810;2023-04-25T10:29:23;5.60;;;0.80;;
37527;SDS011;23372;52.050;4.810;2023-04-25T10:31:50;7.83;;;1.00;;
37527;SDS011;23372;52.050;4.810;2023-04-25T10:34:16;5.80;;;1.33;;
37527;SDS011;23372;52.050;4.810;2023-04-25T10:36:42;7.40;;;1.13;;
37527;SDS011;23372;52.050;4.810;2023-04-25T10:39:14;5.72;;;1.05;;
37527;SDS011;23372;52.050;4.810;2023-04-25T10:41:57;5.53;;;1.27;;
37527;SDS011;23372;52.050;4.810;2023-04-25T10:44:27;6.10;;;0.90;;
37527;SDS011;23372;52.050;4.810;2023-04-25T10:46:54;7.90;;;1.60;;
37527;SDS011;23372;52.050;4.810;2023-04-25T10:49:38;3.80;;;1.10;;
37527;SDS011;23372;52.050;4.810;2023-04-25T10:52:25;6.33;;;1.13;;
37527;SDS011;23372;52.050;4.810;2023-04-25T10:54:56;4.03;;;0.90;;
37527;SDS011;23372;52.050;4.810;2023-04-25T10:57:26;5.27;;;0.93;;
37527;SDS011;23372;52.050;4.810;2023-04-25T10:59:51;4.63;;;1.03;;
37527;SDS011;23372;52.050;4.810;2023-04-25T11:02:17;7.30;;;1.00;;
37527;SDS011;23372;52.050;4.810;2023-04-25T11:04:43;6.80;;;1.80;;
37527;SDS011;23372;52.050;4.810;2023-04-25T11:07:16;2.37;;;0.70;;
37527;SDS011;23372;52.050;4.810;2023-04-25T11:09:51;6.53;;;1.77;;
37527;SDS011;23372;52.050;4.810;2023-04-25T11:12:17;7.00;;;1.10;;
37527;SDS011;23372;52.050;4.810;2023-04-25T11:14:42;2.93;;;0.90;;
37527;SDS011;23372;52.050;4.810;2023-04-25T11:17:08;3.90;;;0.90;;
37527;SDS011;23372;52.050;4.810;2023-04-25T11:19:35;6.43;;;0.80;;
37527;SDS011;23372;52.050;4.810;2023-04-25T11:22:01;2.93;;;0.90;;
37527;SDS011;23372;52.050;4.810;2023-04-25T11:24:35;3.90;;;1.37;;
37527;SDS011;23372;52.050;4.810;2023-04-25T11:27:02;6.07;;;1.67;;
37527;SDS011;23372;52.050;4.810;2023-04-25T11:29:29;6.37;;;1.23;;
37527;SDS011;23372;52.050;4.810;2023-04-25T11:31:55;6.83;;;1.10;;
37527;SDS011;23372;52.050;4.810;2023-04-25T11:34:23;5.43;;;0.73;;
37527;SDS011;23372;52.050;4.810;2023-04-25T11:36:50;6.87;;;1.23;;
37527;SDS011;23372;52.050;4.810;2023-04-25T11:39:17;9.07;;;1.73;;
37527;SDS011;23372;52.050;4.810;2023-04-25T11:41:43;7.50;;;1.03;;
37527;SDS011;23372;52.050;4.810;2023-04-25T11:44:09;6.03;;;1.43;;
37527;SDS011;23372;52.050;4.810;2023-04-25T11:46:35;5.53;;;2.13;;
37527;SDS011;23372;52.050;4.810;2023-04-25T11:49:01;3.43;;;0.87;;
37527;SDS011;23372;52.050;4.810;2023-04-25T11:51:27;8.27;;;1.27;;
37527;SDS011;23372;52.050;4.810;2023-04-25T11:53:53;5.77;;;1.30;;
37527;SDS011;23372;52.050;4.810;2023-04-25T11:56:18;5.83;;;1.10;;
37527;SDS011;23372;52.050;4.810;2023-04-25T11:58:58;12.85;;;1.83;;
37527;SDS011;23372;52.050;4.810;2023-04-25T12:01:29;6.83;;;1.20;;
37527;SDS011;23372;52.050;4.810;2023-04-25T12:04:19;11.10;;;1.40;;
37527;SDS011;23372;52.050;4.810;2023-04-25T12:06:47;7.97;;;1.30;;
37527;SDS011;23372;52.050;4.810;2023-04-25T12:09:15;7.70;;;1.20;;
37527;SDS011;23372;52.050;4.810;2023-04-25T12:11:53;5.13;;;0.90;;
37527;SDS011;23372;52.050;4.810;2023-04-25T12:14:27;4.37;;;1.13;;
37527;SDS011;23372;52.050;4.810;2023-04-25T12:17:01;2.37;;;0.60;;
37527;SDS011;23372;52.050;4.810;2023-04-25T12:19:33;5.33;;;1.10;;
37527;SDS011;23372;52.050;4.810;2023-04-25T12:22:03;7.10;;;2.40;;
37527;SDS011;23372;52.050;4.810;2023-04-25T12:24:44;5.37;;;1.00;;
37527;SDS011;23372;52.050;4.810;2023-04-25T12:27:10;4.33;;;0.97;;
37527;SDS011;23372;52.050;4.810;2023-04-25T12:29:35;6.37;;;1.50;;
37527;SDS011;23372;52.050;4.810;2023-04-25T12:32:04;5.47;;;1.40;;
37527;SDS011;23372;52.050;4.810;2023-04-25T12:34:31;5.83;;;0.90;;
37527;SDS011;23372;52.050;4.810;2023-04-25T12:36:59;7.23;;;1.80;;
37527;SDS011;23372;52.050;4.810;2023-04-25T12:39:25;7.10;;;1.27;;
37527;SDS011;23372;52.050;4.810;2023-04-25T12:41:51;4.43;;;1.00;;
37527;SDS011;23372;52.050;4.810;2023-04-25T12:44:18;6.97;;;1.30;;
37527;SDS011;23372;52.050;4.810;2023-04-25T12:46:45;5.60;;;1.20;;
37527;SDS011;23372;52.050;4.810;2023-04-25T12:49:10;2.53;;;1.00;;
37527;SDS011;23372;52.050;4.810;2023-04-25T12:51:36;7.53;;;1.90;;
37527;SDS011;23372;52.050;4.810;2023-04-25T12:54:02;7.73;;;1.30;;
37527;SDS011;23372;52.050;4.810;2023-04-25T12:56:29;6.33;;;1.37;;
37527;SDS011;23372;52.050;4.810;2023-04-25T12:58:56;5.50;;;1.20;;
37527;SDS011;23372;52.050;4.810;2023-04-25T13:01:22;3.77;;;1.13;;
37527;SDS011;23372;52.050;4.810;2023-04-25T13:03:49;3.80;;;1.00;;
37527;SDS011;23372;52.050;4.810;2023-04-25T13:06:15;7.67;;;1.40;;
37527;SDS011;23372;52.050;4.810;2023-04-25T13:08:42;7.10;;;1.10;;
37527;SDS011;23372;52.050;4.810;2023-04-25T13:11:08;6.23;;;1.03;;
37527;SDS011;23372;52.050;4.810;2023-04-25T13:13:34;4.27;;;1.27;;
37527;SDS011;23372;52.050;4.810;2023-04-25T13:16:03;9.07;;;1.00;;
37527;SDS011;23372;52.050;4.810;2023-04-25T13:18:29;4.23;;;1.07;;
37527;SDS011;23372;52.050;4.810;2023-04-25T13:20:56;3.73;;;1.17;;
37527;SDS011;23372;52.050;4.810;2023-04-25T13:23:22;7.27;;;1.20;;
37527;SDS011;23372;52.050;4.810;2023-04-25T13:25:50;7.07;;;1.30;;
37527;SDS011;23372;52.050;4.810;2023-04-25T13:28:16;6.53;;;1.27;;
37527;SDS011;23372;52.050;4.810;2023-04-25T13:30:41;5.07;;;1.00;;
37527;SDS011;23372;52.050;4.810;2023-04-25T13:33:08;9.13;;;1.40;;
37527;SDS011;23372;52.050;4.810;2023-04-25T13:35:34;10.40;;;1.70;;
37527;SDS011;23372;52.050;4.810;2023-04-25T13:38:00;5.53;;;1.30;;
37527;SDS011;23372;52.050;4.810;2023-04-25T13:40:26;7.47;;;1.50;;
37527;SDS011;23372;52.050;4.810;2023-04-25T13:42:52;2.87;;;0.90;;
37527;SDS011;23372;52.050;4.810;2023-04-25T13:45:19;3.43;;;1.13;;
37527;SDS011;23372;52.050;4.810;2023-04-25T13:47:45;5.57;;;1.47;;
37527;SDS011;23372;52.050;4.810;2023-04-25T13:50:11;6.37;;;1.10;;
37527;SDS011;23372;52.050;4.810;2023-04-25T13:52:37;8.30;;;1.40;;
37527;SDS011;23372;52.050;4.810;2023-04-25T13:55:03;8.67;;;1.87;;
37527;SDS011;23372;52.050;4.810;2023-04-25T13:57:31;2.70;;;1.20;;
37527;SDS011;23372;52.050;4.810;2023-04-25T13:59:57;8.87;;;1.37;;
37527;SDS011;23372;52.050;4.810;2023-04-25T14:02:23;9.30;;;2.30;;
37527;SDS011;23372;52.050;4.810;2023-04-25T14:04:49;6.43;;;1.30;;
37527;SDS011;23372;52.050;4.810;2023-04-25T14:07:14;6.83;;;1.10;;
37527;SDS011;23372;52.050;4.810;2023-04-25T14:09:44;4.07;;;1.63;;
37527;SDS011;23372;52.050;4.810;2023-04-25T14:12:10;6.30;;;1.33;;
37527;SDS011;23372;52.050;4.810;2023-04-25T14:14:36;6.13;;;1.33;;
37527;SDS011;23372;52.050;4.810;2023-04-25T14:17:03;5.77;;;1.33;;
37527;SDS011;23372;52.050;4.810;2023-04-25T14:19:29;5.20;;;1.27;;
37527;SDS011;23372;52.050;4.810;2023-04-25T14:21:55;9.23;;;1.90;;
37527;SDS011;23372;52.050;4.810;2023-04-25T14:24:21;7.37;;;2.50;;
37527;SDS011;23372;52.050;4.810;2023-04-25T14:26:46;4.80;;;1.63;;
37527;SDS011;23372;52.050;4.810;2023-04-25T14:29:15;5.10;;;1.27;;
37527;SDS011;23372;52.050;4.810;2023-04-25T14:31:41;6.70;;;1.33;;
37527;SDS011;23372;52.050;4.810;2023-04-25T14:34:07;5.83;;;1.33;;
37527;SDS011;23372;52.050;4.810;2023-04-25T14:36:33;7.07;;;1.77;;
37527;SDS011;23372;52.050;4.810;2023-04-25T14:39:00;7.07;;;1.30;;
37527;SDS011;23372;52.050;4.810;2023-04-25T14:41:26;3.90;;;1.20;;
37527;SDS011;23372;52.050;4.810;2023-04-25T14:43:52;8.50;;;1.50;;
37527;SDS011;23372;52.050;4.810;2023-04-25T14:46:18;7.67;;;1.20;;